Terminal Aerodrome Forecast
Issued by NWS

Home | Current Version | Previous Version | Text Only | Print | Product List | Glossary Off
Versions: 1 2 3 4 5 6 7 8 9 10 11 12 13 14 15 16 17 18 19 20

000
FTUS43 KABR 181300 AAA
TAFMBG
TAF AMD
KMBG 181304Z 1813/1912 19008KT P6SM OVC008
     FM181800 16014KT P6SM SKC
     FM190200 14007KT P6SM BKN250=

USA.gov is the U.S. government's official web portal to all federal, state and local government web resources and services.